Prudhoe Bay, AK

6:08 AM AKST on February 27, 2017 (GMT -0900)
Ugnu Kuparuk | | Change Station
Active Advisory: Winter Weather Advisory

Elev 66 ft 70.33 °N, 149.60 °W | Updated 23 minutes ago

Mostly Cloudy
Mostly Cloudy
-17 °F
Feels Like -41 °F
N
15
Wind Variable Wind from ENE

Today
High -- | Low -- °F
--% Chance of Precip.
Yesterday
High -- | Low -- °F
Precip. -- in
Pressure 30.13 in
Visibility 10.0 miles
Clouds Few 9500 ft
Scattered Clouds 12000 ft
Mostly Cloudy 14000 ft
Windchill -41 °F
Dew Point -20 °F
Humidity 84%
Rainfall 0.00 in
Snow Depth Not available.
8:33 AM 5:49 PM
New Moon, 1% visible
METAR PAKU 271445Z 06013KT 10SM R06/P6000FT FEW095 SCT120 BKN140 M27/M29 A3013
Pressure 30.13 in
Visibility 10.0 miles
Clouds Few 9500 ft
Scattered Clouds 12000 ft
Mostly Cloudy 14000 ft
Windchill -41 °F
Dew Point -20 °F
Humidity 84%
Rainfall 0.00 in
Snow Depth Not available.
8:33 AM 5:49 PM
New Moon, 1% visible
METAR PAKU 271445Z 06013KT 10SM R06/P6000FT FEW095 SCT120 BKN140 M27/M29 A3013

Get Your Daily Forecast Email!

Thanks for signing up!

Be on the lookout for a verification email in your inbox.

You'll start receiving the daily forecast at 8 AM.

×

10-Day Weather Forecast

Almanac

Astronomy

Feb. 27, 2017 Rise Set
Actual Time
Civil Twilight
Nautical Twilight
Astronomical Twilight
Moon
Length of Visible Light
Length of Day
Tomorrow will be .
, % of the Moon is Illuminated

Today's Extremes

State Highs State Lows

Community

WunderPhotos

Upload Photos

1,962,540 photos uploaded!

WunderBlog® & News

Nearby

Air Quality

  Air Quality AQ Index Pollutant
Not available.

Snow Depth

Station Depth Elevation

Earthquake Activity

City Distance Mag. Time & Date
Minimum magnitude displayed is 2.5.

Coastal Water Temperatures

Place Temperature

Stations

Nearby Weather Stations

Station Location Temp. Windchill Dew Point Humidity Wind Precip. Elev Updated Type
                   

Watches & Warnings

Winter Weather Advisory
Issued: 4:27 AM AKST Feb. 27, 2017 – National Weather Service

... Winter Weather Advisory in effect from midnight tonight to
noon akst Wednesday...

The National Weather Service in Fairbanks has issued a Winter
Weather Advisory for wind chill which is in effect from midnight
tonight to noon akst Wednesday.

* Wind chill... 50 to 59 below.

* Timing... falling temperatures combined with increasing winds
this evening will produce low wind chills beginning around
midnight tonight. The low wind chill values will continue
through noon on Wednesday.

* Impacts... exposed flesh will freeze in a short time resulting in
frostbite.

Precautionary/preparedness actions...

A Winter Weather Advisory means that one or more winter weather
hazards are expected to cause travel difficulties.